sensor_id;sensor_type;location;lat;lon;timestamp;P1;durP1;ratioP1;P2;durP2;ratioP2
18265;SDS011;9259;48.194;16.322;2023-09-08T00:00:10;7.60;;;4.65;;
18265;SDS011;9259;48.194;16.322;2023-09-08T00:02:38;8.98;;;5.03;;
18265;SDS011;9259;48.194;16.322;2023-09-08T00:05:06;11.88;;;4.85;;
18265;SDS011;9259;48.194;16.322;2023-09-08T00:07:34;9.50;;;5.22;;
18265;SDS011;9259;48.194;16.322;2023-09-08T00:10:02;10.18;;;5.07;;
18265;SDS011;9259;48.194;16.322;2023-09-08T00:12:31;11.55;;;5.32;;
18265;SDS011;9259;48.194;16.322;2023-09-08T00:14:59;11.52;;;5.30;;
18265;SDS011;9259;48.194;16.322;2023-09-08T00:17:28;9.00;;;4.55;;
18265;SDS011;9259;48.194;16.322;2023-09-08T00:19:56;11.77;;;5.00;;
18265;SDS011;9259;48.194;16.322;2023-09-08T00:22:24;11.02;;;4.47;;
18265;SDS011;9259;48.194;16.322;2023-09-08T00:24:52;10.48;;;5.47;;
18265;SDS011;9259;48.194;16.322;2023-09-08T00:27:21;11.02;;;5.03;;
18265;SDS011;9259;48.194;16.322;2023-09-08T00:29:49;11.90;;;5.43;;
18265;SDS011;9259;48.194;16.322;2023-09-08T00:32:17;11.45;;;4.68;;
18265;SDS011;9259;48.194;16.322;2023-09-08T00:34:46;11.10;;;5.35;;
18265;SDS011;9259;48.194;16.322;2023-09-08T00:37:14;14.00;;;5.28;;
18265;SDS011;9259;48.194;16.322;2023-09-08T00:39:42;12.35;;;5.18;;
18265;SDS011;9259;48.194;16.322;2023-09-08T00:42:10;11.40;;;4.90;;
18265;SDS011;9259;48.194;16.322;2023-09-08T00:44:38;13.00;;;5.07;;
18265;SDS011;9259;48.194;16.322;2023-09-08T00:47:06;9.18;;;5.10;;
18265;SDS011;9259;48.194;16.322;2023-09-08T00:49:34;10.02;;;4.30;;
18265;SDS011;9259;48.194;16.322;2023-09-08T00:52:04;7.85;;;4.95;;
18265;SDS011;9259;48.194;16.322;2023-09-08T00:54:33;9.00;;;5.13;;
18265;SDS011;9259;48.194;16.322;2023-09-08T00:57:01;9.85;;;5.07;;
18265;SDS011;9259;48.194;16.322;2023-09-08T00:59:31;8.80;;;4.88;;
18265;SDS011;9259;48.194;16.322;2023-09-08T01:01:59;9.38;;;4.78;;
18265;SDS011;9259;48.194;16.322;2023-09-08T01:04:28;8.38;;;4.88;;
18265;SDS011;9259;48.194;16.322;2023-09-08T01:06:56;11.25;;;4.97;;
18265;SDS011;9259;48.194;16.322;2023-09-08T01:09:26;8.77;;;5.03;;
18265;SDS011;9259;48.194;16.322;2023-09-08T01:11:55;9.90;;;5.50;;
18265;SDS011;9259;48.194;16.322;2023-09-08T01:14:27;11.95;;;5.03;;
18265;SDS011;9259;48.194;16.322;2023-09-08T01:17:02;10.10;;;5.00;;
18265;SDS011;9259;48.194;16.322;2023-09-08T01:19:30;10.15;;;5.20;;
18265;SDS011;9259;48.194;16.322;2023-09-08T01:22:02;10.20;;;5.03;;
18265;SDS011;9259;48.194;16.322;2023-09-08T01:25:07;12.30;;;5.53;;
18265;SDS011;9259;48.194;16.322;2023-09-08T01:27:43;9.82;;;5.55;;
18265;SDS011;9259;48.194;16.322;2023-09-08T01:30:14;11.55;;;5.35;;
18265;SDS011;9259;48.194;16.322;2023-09-08T01:32:43;11.18;;;5.53;;
18265;SDS011;9259;48.194;16.322;2023-09-08T01:35:11;12.75;;;5.68;;
18265;SDS011;9259;48.194;16.322;2023-09-08T01:37:40;11.68;;;5.22;;
18265;SDS011;9259;48.194;16.322;2023-09-08T01:40:10;10.15;;;5.07;;
18265;SDS011;9259;48.194;16.322;2023-09-08T01:42:39;12.10;;;5.57;;
18265;SDS011;9259;48.194;16.322;2023-09-08T01:45:08;11.18;;;5.50;;
18265;SDS011;9259;48.194;16.322;2023-09-08T01:47:36;9.65;;;4.72;;
18265;SDS011;9259;48.194;16.322;2023-09-08T01:50:04;10.38;;;5.10;;
18265;SDS011;9259;48.194;16.322;2023-09-08T01:52:33;12.07;;;5.10;;
18265;SDS011;9259;48.194;16.322;2023-09-08T01:55:01;13.43;;;5.50;;
18265;SDS011;9259;48.194;16.322;2023-09-08T01:57:30;12.50;;;5.00;;
18265;SDS011;9259;48.194;16.322;2023-09-08T01:59:58;11.68;;;5.40;;
18265;SDS011;9259;48.194;16.322;2023-09-08T02:02:26;13.15;;;5.95;;
18265;SDS011;9259;48.194;16.322;2023-09-08T02:04:54;13.77;;;5.32;;
18265;SDS011;9259;48.194;16.322;2023-09-08T02:07:22;12.48;;;5.43;;
18265;SDS011;9259;48.194;16.322;2023-09-08T02:09:50;13.50;;;4.65;;
18265;SDS011;9259;48.194;16.322;2023-09-08T02:12:18;12.32;;;5.22;;
18265;SDS011;9259;48.194;16.322;2023-09-08T02:14:48;9.93;;;5.28;;
18265;SDS011;9259;48.194;16.322;2023-09-08T02:17:17;12.50;;;6.25;;
18265;SDS011;9259;48.194;16.322;2023-09-08T02:19:45;13.20;;;5.63;;
18265;SDS011;9259;48.194;16.322;2023-09-08T02:22:14;9.65;;;5.47;;
18265;SDS011;9259;48.194;16.322;2023-09-08T02:24:42;10.07;;;5.57;;
18265;SDS011;9259;48.194;16.322;2023-09-08T02:27:10;8.45;;;5.22;;
18265;SDS011;9259;48.194;16.322;2023-09-08T02:29:38;11.05;;;5.28;;
18265;SDS011;9259;48.194;16.322;2023-09-08T02:32:08;10.68;;;5.75;;
18265;SDS011;9259;48.194;16.322;2023-09-08T02:34:36;14.52;;;5.35;;
18265;SDS011;9259;48.194;16.322;2023-09-08T02:37:04;12.32;;;5.65;;
18265;SDS011;9259;48.194;16.322;2023-09-08T02:39:32;13.73;;;5.50;;
18265;SDS011;9259;48.194;16.322;2023-09-08T02:42:00;12.23;;;5.60;;
18265;SDS011;9259;48.194;16.322;2023-09-08T02:44:28;11.90;;;5.20;;
18265;SDS011;9259;48.194;16.322;2023-09-08T02:46:56;9.13;;;5.07;;
18265;SDS011;9259;48.194;16.322;2023-09-08T02:49:25;11.27;;;5.20;;
18265;SDS011;9259;48.194;16.322;2023-09-08T02:51:53;10.45;;;5.00;;
18265;SDS011;9259;48.194;16.322;2023-09-08T02:54:21;10.75;;;5.75;;
18265;SDS011;9259;48.194;16.322;2023-09-08T02:56:49;11.00;;;5.10;;
18265;SDS011;9259;48.194;16.322;2023-09-08T02:59:17;10.82;;;4.95;;
18265;SDS011;9259;48.194;16.322;2023-09-08T03:01:45;13.32;;;5.55;;
18265;SDS011;9259;48.194;16.322;2023-09-08T03:04:13;11.65;;;5.55;;
18265;SDS011;9259;48.194;16.322;2023-09-08T03:06:43;14.32;;;6.28;;
18265;SDS011;9259;48.194;16.322;2023-09-08T03:09:11;11.43;;;5.43;;
18265;SDS011;9259;48.194;16.322;2023-09-08T03:11:39;10.00;;;5.10;;
18265;SDS011;9259;48.194;16.322;2023-09-08T03:14:07;11.13;;;5.90;;
18265;SDS011;9259;48.194;16.322;2023-09-08T03:16:35;8.70;;;5.13;;
18265;SDS011;9259;48.194;16.322;2023-09-08T03:19:03;11.75;;;6.05;;
18265;SDS011;9259;48.194;16.322;2023-09-08T03:21:31;15.38;;;6.25;;
18265;SDS011;9259;48.194;16.322;2023-09-08T03:24:00;17.45;;;6.20;;
18265;SDS011;9259;48.194;16.322;2023-09-08T03:26:28;10.13;;;5.32;;
18265;SDS011;9259;48.194;16.322;2023-09-08T03:28:56;10.82;;;5.55;;
18265;SDS011;9259;48.194;16.322;2023-09-08T03:31:24;9.93;;;4.82;;
18265;SDS011;9259;48.194;16.322;2023-09-08T03:33:53;10.38;;;5.30;;
18265;SDS011;9259;48.194;16.322;2023-09-08T03:36:21;12.68;;;5.45;;
18265;SDS011;9259;48.194;16.322;2023-09-08T03:38:50;11.10;;;4.85;;
18265;SDS011;9259;48.194;16.322;2023-09-08T03:41:19;10.60;;;4.95;;
18265;SDS011;9259;48.194;16.322;2023-09-08T03:43:47;10.73;;;5.55;;
18265;SDS011;9259;48.194;16.322;2023-09-08T03:46:15;10.77;;;5.50;;
18265;SDS011;9259;48.194;16.322;2023-09-08T03:48:43;18.50;;;6.38;;
18265;SDS011;9259;48.194;16.322;2023-09-08T03:51:13;9.55;;;5.22;;
18265;SDS011;9259;48.194;16.322;2023-09-08T03:53:41;12.75;;;5.35;;
18265;SDS011;9259;48.194;16.322;2023-09-08T03:56:09;8.75;;;5.28;;
18265;SDS011;9259;48.194;16.322;2023-09-08T03:58:38;11.32;;;5.72;;
18265;SDS011;9259;48.194;16.322;2023-09-08T04:01:06;15.27;;;5.40;;
18265;SDS011;9259;48.194;16.322;2023-09-08T04:03:34;10.63;;;5.38;;
18265;SDS011;9259;48.194;16.322;2023-09-08T04:06:02;11.57;;;5.78;;
18265;SDS011;9259;48.194;16.322;2023-09-08T04:08:30;11.57;;;5.40;;
18265;SDS011;9259;48.194;16.322;2023-09-08T04:10:58;12.05;;;5.85;;
18265;SDS011;9259;48.194;16.322;2023-09-08T04:13:26;12.05;;;5.28;;
18265;SDS011;9259;48.194;16.322;2023-09-08T04:15:56;11.25;;;5.85;;
18265;SDS011;9259;48.194;16.322;2023-09-08T04:18:24;10.02;;;4.90;;
18265;SDS011;9259;48.194;16.322;2023-09-08T04:20:52;10.15;;;5.45;;
18265;SDS011;9259;48.194;16.322;2023-09-08T04:23:19;9.57;;;5.50;;
18265;SDS011;9259;48.194;16.322;2023-09-08T04:25:47;13.40;;;6.05;;
18265;SDS011;9259;48.194;16.322;2023-09-08T04:28:16;10.35;;;5.95;;
18265;SDS011;9259;48.194;16.322;2023-09-08T04:30:45;12.18;;;6.25;;
18265;SDS011;9259;48.194;16.322;2023-09-08T04:33:15;13.00;;;6.13;;
18265;SDS011;9259;48.194;16.322;2023-09-08T04:35:43;12.60;;;5.70;;
18265;SDS011;9259;48.194;16.322;2023-09-08T04:38:11;12.27;;;5.72;;
18265;SDS011;9259;48.194;16.322;2023-09-08T04:40:40;15.65;;;5.85;;
18265;SDS011;9259;48.194;16.322;2023-09-08T04:43:08;14.48;;;6.13;;
18265;SDS011;9259;48.194;16.322;2023-09-08T04:45:36;10.70;;;5.88;;
18265;SDS011;9259;48.194;16.322;2023-09-08T04:48:05;13.00;;;5.82;;
18265;SDS011;9259;48.194;16.322;2023-09-08T04:50:34;13.23;;;6.22;;
18265;SDS011;9259;48.194;16.322;2023-09-08T04:53:03;24.13;;;6.18;;
18265;SDS011;9259;48.194;16.322;2023-09-08T04:55:31;18.45;;;6.25;;
18265;SDS011;9259;48.194;16.322;2023-09-08T04:57:59;20.30;;;7.28;;
18265;SDS011;9259;48.194;16.322;2023-09-08T05:00:27;14.30;;;6.28;;
18265;SDS011;9259;48.194;16.322;2023-09-08T05:02:55;13.85;;;5.93;;
18265;SDS011;9259;48.194;16.322;2023-09-08T05:05:23;14.57;;;6.13;;
18265;SDS011;9259;48.194;16.322;2023-09-08T05:07:52;32.40;;;7.10;;
18265;SDS011;9259;48.194;16.322;2023-09-08T05:10:21;20.35;;;6.28;;
18265;SDS011;9259;48.194;16.322;2023-09-08T05:12:50;16.63;;;6.47;;
18265;SDS011;9259;48.194;16.322;2023-09-08T05:15:18;15.18;;;6.53;;
18265;SDS011;9259;48.194;16.322;2023-09-08T05:17:47;18.10;;;6.72;;
18265;SDS011;9259;48.194;16.322;2023-09-08T05:20:15;13.25;;;6.85;;
18265;SDS011;9259;48.194;16.322;2023-09-08T05:22:43;19.20;;;7.07;;
18265;SDS011;9259;48.194;16.322;2023-09-08T05:25:12;11.55;;;5.85;;
18265;SDS011;9259;48.194;16.322;2023-09-08T05:27:40;15.55;;;6.20;;
18265;SDS011;9259;48.194;16.322;2023-09-08T05:30:08;9.77;;;5.78;;
18265;SDS011;9259;48.194;16.322;2023-09-08T05:32:37;17.25;;;6.68;;
18265;SDS011;9259;48.194;16.322;2023-09-08T05:35:05;15.50;;;6.20;;
18265;SDS011;9259;48.194;16.322;2023-09-08T05:37:33;12.10;;;6.43;;
18265;SDS011;9259;48.194;16.322;2023-09-08T05:40:01;16.10;;;6.32;;
18265;SDS011;9259;48.194;16.322;2023-09-08T05:42:32;15.20;;;5.90;;
18265;SDS011;9259;48.194;16.322;2023-09-08T05:45:00;11.13;;;5.60;;
18265;SDS011;9259;48.194;16.322;2023-09-08T05:47:28;13.48;;;5.70;;
18265;SDS011;9259;48.194;16.322;2023-09-08T05:49:56;11.38;;;5.93;;
18265;SDS011;9259;48.194;16.322;2023-09-08T05:52:24;13.13;;;7.18;;
18265;SDS011;9259;48.194;16.322;2023-09-08T05:54:53;13.45;;;6.32;;
18265;SDS011;9259;48.194;16.322;2023-09-08T05:57:21;13.65;;;6.53;;
18265;SDS011;9259;48.194;16.322;2023-09-08T05:59:51;14.70;;;6.70;;
18265;SDS011;9259;48.194;16.322;2023-09-08T06:02:19;12.40;;;6.30;;
18265;SDS011;9259;48.194;16.322;2023-09-08T06:04:47;11.27;;;5.85;;
18265;SDS011;9259;48.194;16.322;2023-09-08T06:07:15;12.73;;;6.40;;
18265;SDS011;9259;48.194;16.322;2023-09-08T06:09:43;10.70;;;5.65;;
18265;SDS011;9259;48.194;16.322;2023-09-08T06:12:11;14.00;;;6.10;;
18265;SDS011;9259;48.194;16.322;2023-09-08T06:14:39;10.95;;;5.68;;
18265;SDS011;9259;48.194;16.322;2023-09-08T06:17:09;14.07;;;6.43;;
18265;SDS011;9259;48.194;16.322;2023-09-08T06:19:37;12.30;;;6.20;;
18265;SDS011;9259;48.194;16.322;2023-09-08T06:22:05;12.48;;;5.45;;
18265;SDS011;9259;48.194;16.322;2023-09-08T06:24:33;12.02;;;5.25;;
18265;SDS011;9259;48.194;16.322;2023-09-08T06:27:01;12.85;;;6.03;;
18265;SDS011;9259;48.194;16.322;2023-09-08T06:29:29;12.77;;;5.97;;
18265;SDS011;9259;48.194;16.322;2023-09-08T06:31:58;11.13;;;5.63;;
18265;SDS011;9259;48.194;16.322;2023-09-08T06:34:27;12.68;;;5.63;;
18265;SDS011;9259;48.194;16.322;2023-09-08T06:36:55;12.73;;;4.93;;
18265;SDS011;9259;48.194;16.322;2023-09-08T06:39:25;11.70;;;5.22;;
18265;SDS011;9259;48.194;16.322;2023-09-08T06:41:53;8.82;;;4.82;;
18265;SDS011;9259;48.194;16.322;2023-09-08T06:44:21;12.10;;;5.32;;
18265;SDS011;9259;48.194;16.322;2023-09-08T06:46:49;9.50;;;4.90;;
18265;SDS011;9259;48.194;16.322;2023-09-08T06:49:17;11.10;;;5.13;;
18265;SDS011;9259;48.194;16.322;2023-09-08T06:51:47;9.50;;;5.35;;
18265;SDS011;9259;48.194;16.322;2023-09-08T06:54:15;11.82;;;5.57;;
18265;SDS011;9259;48.194;16.322;2023-09-08T06:56:43;13.38;;;5.28;;
18265;SDS011;9259;48.194;16.322;2023-09-08T06:59:11;12.68;;;5.80;;
18265;SDS011;9259;48.194;16.322;2023-09-08T07:01:39;13.50;;;5.95;;
18265;SDS011;9259;48.194;16.322;2023-09-08T07:04:07;11.85;;;5.90;;
18265;SDS011;9259;48.194;16.322;2023-09-08T07:06:36;13.52;;;5.53;;
18265;SDS011;9259;48.194;16.322;2023-09-08T07:09:08;11.15;;;6.10;;
18265;SDS011;9259;48.194;16.322;2023-09-08T07:11:36;12.10;;;5.93;;
18265;SDS011;9259;48.194;16.322;2023-09-08T07:14:05;17.10;;;6.20;;
18265;SDS011;9259;48.194;16.322;2023-09-08T07:16:33;14.43;;;5.63;;
18265;SDS011;9259;48.194;16.322;2023-09-08T07:19:01;13.13;;;5.72;;
18265;SDS011;9259;48.194;16.322;2023-09-08T07:21:29;14.82;;;5.43;;
18265;SDS011;9259;48.194;16.322;2023-09-08T07:23:58;12.68;;;6.00;;
18265;SDS011;9259;48.194;16.322;2023-09-08T07:26:27;11.18;;;5.63;;
18265;SDS011;9259;48.194;16.322;2023-09-08T07:28:55;11.13;;;4.93;;
18265;SDS011;9259;48.194;16.322;2023-09-08T07:31:23;12.45;;;5.93;;
18265;SDS011;9259;48.194;16.322;2023-09-08T07:33:51;11.50;;;5.53;;
18265;SDS011;9259;48.194;16.322;2023-09-08T07:36:19;12.63;;;5.88;;
18265;SDS011;9259;48.194;16.322;2023-09-08T07:38:47;11.60;;;5.65;;
18265;SDS011;9259;48.194;16.322;2023-09-08T07:41:15;10.77;;;5.28;;
18265;SDS011;9259;48.194;16.322;2023-09-08T07:43:45;11.25;;;5.38;;
18265;SDS011;9259;48.194;16.322;2023-09-08T07:46:13;9.23;;;5.15;;
18265;SDS011;9259;48.194;16.322;2023-09-08T07:48:41;9.60;;;5.03;;
18265;SDS011;9259;48.194;16.322;2023-09-08T07:51:09;8.40;;;4.93;;
18265;SDS011;9259;48.194;16.322;2023-09-08T07:53:37;10.15;;;5.07;;
18265;SDS011;9259;48.194;16.322;2023-09-08T07:56:05;11.77;;;4.85;;
18265;SDS011;9259;48.194;16.322;2023-09-08T07:58:33;11.32;;;6.25;;
18265;SDS011;9259;48.194;16.322;2023-09-08T08:01:03;16.88;;;5.75;;
18265;SDS011;9259;48.194;16.322;2023-09-08T08:03:31;15.57;;;5.70;;
18265;SDS011;9259;48.194;16.322;2023-09-08T08:06:00;10.25;;;5.75;;
18265;SDS011;9259;48.194;16.322;2023-09-08T08:08:28;13.70;;;5.55;;
18265;SDS011;9259;48.194;16.322;2023-09-08T08:10:57;13.80;;;4.97;;
18265;SDS011;9259;48.194;16.322;2023-09-08T08:13:25;12.80;;;5.03;;
18265;SDS011;9259;48.194;16.322;2023-09-08T08:15:53;11.68;;;5.05;;
18265;SDS011;9259;48.194;16.322;2023-09-08T08:18:22;13.43;;;6.15;;
18265;SDS011;9259;48.194;16.322;2023-09-08T08:20:50;16.90;;;6.30;;
18265;SDS011;9259;48.194;16.322;2023-09-08T08:23:18;12.10;;;5.50;;
18265;SDS011;9259;48.194;16.322;2023-09-08T08:25:48;13.07;;;6.70;;
18265;SDS011;9259;48.194;16.322;2023-09-08T08:28:16;14.32;;;6.70;;
18265;SDS011;9259;48.194;16.322;2023-09-08T08:30:44;10.52;;;6.80;;
18265;SDS011;9259;48.194;16.322;2023-09-08T08:33:12;10.95;;;5.13;;
18265;SDS011;9259;48.194;16.322;2023-09-08T08:35:46;14.18;;;5.90;;
18265;SDS011;9259;48.194;16.322;2023-09-08T08:38:16;13.27;;;5.30;;
18265;SDS011;9259;48.194;16.322;2023-09-08T08:40:44;8.48;;;4.55;;
18265;SDS011;9259;48.194;16.322;2023-09-08T08:43:12;8.93;;;3.97;;
18265;SDS011;9259;48.194;16.322;2023-09-08T08:45:41;7.60;;;3.88;;
18265;SDS011;9259;48.194;16.322;2023-09-08T08:48:10;8.98;;;4.13;;
18265;SDS011;9259;48.194;16.322;2023-09-08T08:50:38;6.57;;;3.67;;
18265;SDS011;9259;48.194;16.322;2023-09-08T08:53:07;8.73;;;3.83;;
18265;SDS011;9259;48.194;16.322;2023-09-08T08:55:36;5.78;;;3.72;;
18265;SDS011;9259;48.194;16.322;2023-09-08T08:58:04;9.02;;;3.85;;
18265;SDS011;9259;48.194;16.322;2023-09-08T09:00:34;9.40;;;4.40;;
18265;SDS011;9259;48.194;16.322;2023-09-08T09:03:04;9.20;;;4.57;;
18265;SDS011;9259;48.194;16.322;2023-09-08T09:05:32;7.68;;;4.07;;
18265;SDS011;9259;48.194;16.322;2023-09-08T09:08:01;6.53;;;3.90;;
18265;SDS011;9259;48.194;16.322;2023-09-08T09:10:31;9.13;;;4.20;;
18265;SDS011;9259;48.194;16.322;2023-09-08T09:13:00;9.18;;;3.80;;
18265;SDS011;9259;48.194;16.322;2023-09-08T09:15:28;6.18;;;3.65;;
18265;SDS011;9259;48.194;16.322;2023-09-08T09:18:01;6.82;;;3.58;;
18265;SDS011;9259;48.194;16.322;2023-09-08T09:20:30;6.15;;;3.42;;
18265;SDS011;9259;48.194;16.322;2023-09-08T09:22:59;9.02;;;3.75;;
18265;SDS011;9259;48.194;16.322;2023-09-08T09:25:27;5.00;;;3.28;;
18265;SDS011;9259;48.194;16.322;2023-09-08T09:27:58;8.07;;;4.13;;
18265;SDS011;9259;48.194;16.322;2023-09-08T09:30:28;8.05;;;3.65;;
18265;SDS011;9259;48.194;16.322;2023-09-08T09:33:14;8.18;;;3.63;;
18265;SDS011;9259;48.194;16.322;2023-09-08T09:35:42;5.40;;;3.28;;
18265;SDS011;9259;48.194;16.322;2023-09-08T09:38:11;9.63;;;3.70;;
18265;SDS011;9259;48.194;16.322;2023-09-08T09:40:39;5.55;;;3.58;;
18265;SDS011;9259;48.194;16.322;2023-09-08T09:43:09;9.00;;;3.70;;
18265;SDS011;9259;48.194;16.322;2023-09-08T09:45:38;5.32;;;3.38;;
18265;SDS011;9259;48.194;16.322;2023-09-08T09:48:07;8.15;;;3.90;;
18265;SDS011;9259;48.194;16.322;2023-09-08T09:50:37;7.68;;;3.60;;
18265;SDS011;9259;48.194;16.322;2023-09-08T09:53:10;10.98;;;3.80;;
18265;SDS011;9259;48.194;16.322;2023-09-08T09:55:39;6.68;;;3.25;;
18265;SDS011;9259;48.194;16.322;2023-09-08T09:58:09;5.13;;;3.05;;
18265;SDS011;9259;48.194;16.322;2023-09-08T10:00:38;5.40;;;3.15;;
18265;SDS011;9259;48.194;16.322;2023-09-08T10:03:07;6.25;;;3.45;;
18265;SDS011;9259;48.194;16.322;2023-09-08T10:05:36;7.47;;;3.40;;
18265;SDS011;9259;48.194;16.322;2023-09-08T10:08:05;7.18;;;3.15;;
18265;SDS011;9259;48.194;16.322;2023-09-08T10:10:33;7.07;;;2.90;;
18265;SDS011;9259;48.194;16.322;2023-09-08T10:13:02;7.00;;;3.13;;
18265;SDS011;9259;48.194;16.322;2023-09-08T10:15:34;6.22;;;3.25;;
18265;SDS011;9259;48.194;16.322;2023-09-08T10:18:03;6.80;;;3.38;;
18265;SDS011;9259;48.194;16.322;2023-09-08T10:20:32;6.63;;;3.50;;
18265;SDS011;9259;48.194;16.322;2023-09-08T10:23:02;9.15;;;3.20;;
18265;SDS011;9259;48.194;16.322;2023-09-08T10:25:35;5.20;;;3.05;;
18265;SDS011;9259;48.194;16.322;2023-09-08T10:28:06;6.50;;;3.13;;
18265;SDS011;9259;48.194;16.322;2023-09-08T10:30:36;7.65;;;3.10;;
18265;SDS011;9259;48.194;16.322;2023-09-08T10:33:04;6.80;;;3.38;;
18265;SDS011;9259;48.194;16.322;2023-09-08T10:35:33;7.70;;;3.20;;
18265;SDS011;9259;48.194;16.322;2023-09-08T10:40:49;4.35;;;2.95;;
18265;SDS011;9259;48.194;16.322;2023-09-08T10:43:18;5.72;;;3.40;;
18265;SDS011;9259;48.194;16.322;2023-09-08T10:45:48;5.38;;;3.28;;
18265;SDS011;9259;48.194;16.322;2023-09-08T10:48:16;7.85;;;3.10;;
18265;SDS011;9259;48.194;16.322;2023-09-08T10:50:44;7.22;;;3.63;;
18265;SDS011;9259;48.194;16.322;2023-09-08T10:53:15;9.77;;;3.40;;
18265;SDS011;9259;48.194;16.322;2023-09-08T10:55:44;9.95;;;3.20;;
18265;SDS011;9259;48.194;16.322;2023-09-08T10:58:19;7.63;;;3.70;;
18265;SDS011;9259;48.194;16.322;2023-09-08T11:00:50;5.32;;;3.03;;
18265;SDS011;9259;48.194;16.322;2023-09-08T11:03:41;8.05;;;2.97;;
18265;SDS011;9259;48.194;16.322;2023-09-08T11:06:16;5.97;;;3.50;;
18265;SDS011;9259;48.194;16.322;2023-09-08T11:08:45;4.28;;;3.30;;
18265;SDS011;9259;48.194;16.322;2023-09-08T11:11:13;10.85;;;3.88;;
18265;SDS011;9259;48.194;16.322;2023-09-08T11:13:41;5.30;;;3.42;;
18265;SDS011;9259;48.194;16.322;2023-09-08T11:16:12;4.93;;;3.08;;
18265;SDS011;9259;48.194;16.322;2023-09-08T11:18:41;5.35;;;3.28;;
18265;SDS011;9259;48.194;16.322;2023-09-08T11:21:10;6.15;;;3.22;;
18265;SDS011;9259;48.194;16.322;2023-09-08T11:23:38;4.78;;;3.40;;
18265;SDS011;9259;48.194;16.322;2023-09-08T11:26:06;4.60;;;3.10;;
18265;SDS011;9259;48.194;16.322;2023-09-08T11:28:35;3.78;;;2.55;;
18265;SDS011;9259;48.194;16.322;2023-09-08T11:31:04;5.85;;;3.40;;
18265;SDS011;9259;48.194;16.322;2023-09-08T11:33:34;8.40;;;3.25;;
18265;SDS011;9259;48.194;16.322;2023-09-08T11:36:11;7.13;;;3.53;;
18265;SDS011;9259;48.194;16.322;2023-09-08T11:38:42;7.80;;;3.13;;
18265;SDS011;9259;48.194;16.322;2023-09-08T11:41:11;6.57;;;3.13;;
18265;SDS011;9259;48.194;16.322;2023-09-08T11:43:39;6.57;;;3.25;;
18265;SDS011;9259;48.194;16.322;2023-09-08T11:46:07;6.57;;;3.67;;
18265;SDS011;9259;48.194;16.322;2023-09-08T11:48:37;6.85;;;3.20;;
18265;SDS011;9259;48.194;16.322;2023-09-08T11:51:06;4.03;;;2.92;;
18265;SDS011;9259;48.194;16.322;2023-09-08T11:53:34;4.60;;;3.03;;
18265;SDS011;9259;48.194;16.322;2023-09-08T11:56:03;7.38;;;3.40;;
18265;SDS011;9259;48.194;16.322;2023-09-08T11:58:31;5.35;;;3.17;;
18265;SDS011;9259;48.194;16.322;2023-09-08T12:01:00;6.15;;;3.20;;
18265;SDS011;9259;48.194;16.322;2023-09-08T12:03:29;6.68;;;3.20;;
18265;SDS011;9259;48.194;16.322;2023-09-08T12:05:58;6.47;;;3.50;;
18265;SDS011;9259;48.194;16.322;2023-09-08T12:08:28;5.95;;;3.10;;
18265;SDS011;9259;48.194;16.322;2023-09-08T12:10:56;5.07;;;3.03;;
18265;SDS011;9259;48.194;16.322;2023-09-08T12:13:24;7.55;;;3.25;;
18265;SDS011;9259;48.194;16.322;2023-09-08T12:15:52;5.57;;;3.17;;
18265;SDS011;9259;48.194;16.322;2023-09-08T12:18:20;6.10;;;3.13;;
18265;SDS011;9259;48.194;16.322;2023-09-08T12:21:06;5.30;;;2.80;;
18265;SDS011;9259;48.194;16.322;2023-09-08T12:23:35;4.55;;;2.95;;
18265;SDS011;9259;48.194;16.322;2023-09-08T12:26:15;5.35;;;3.15;;
18265;SDS011;9259;48.194;16.322;2023-09-08T12:28:43;4.95;;;3.03;;
18265;SDS011;9259;48.194;16.322;2023-09-08T12:31:13;6.75;;;3.10;;
18265;SDS011;9259;48.194;16.322;2023-09-08T12:33:41;4.55;;;2.60;;
18265;SDS011;9259;48.194;16.322;2023-09-08T12:36:12;7.30;;;3.03;;
18265;SDS011;9259;48.194;16.322;2023-09-08T12:38:40;3.90;;;2.80;;
18265;SDS011;9259;48.194;16.322;2023-09-08T12:41:13;5.45;;;3.25;;
18265;SDS011;9259;48.194;16.322;2023-09-08T12:43:41;3.85;;;2.88;;
18265;SDS011;9259;48.194;16.322;2023-09-08T12:46:09;7.90;;;2.90;;
18265;SDS011;9259;48.194;16.322;2023-09-08T12:48:38;6.35;;;2.90;;
18265;SDS011;9259;48.194;16.322;2023-09-08T12:51:06;5.43;;;3.20;;
18265;SDS011;9259;48.194;16.322;2023-09-08T12:53:35;4.82;;;3.15;;
18265;SDS011;9259;48.194;16.322;2023-09-08T12:56:03;4.93;;;3.00;;
18265;SDS011;9259;48.194;16.322;2023-09-08T12:58:31;4.13;;;2.80;;
18265;SDS011;9259;48.194;16.322;2023-09-08T13:01:00;7.25;;;2.90;;
18265;SDS011;9259;48.194;16.322;2023-09-08T13:03:31;3.53;;;2.58;;
18265;SDS011;9259;48.194;16.322;2023-09-08T13:06:00;4.57;;;3.20;;
18265;SDS011;9259;48.194;16.322;2023-09-08T13:08:28;3.92;;;2.75;;
18265;SDS011;9259;48.194;16.322;2023-09-08T13:10:58;4.30;;;2.97;;
18265;SDS011;9259;48.194;16.322;2023-09-08T13:13:27;6.25;;;3.08;;
18265;SDS011;9259;48.194;16.322;2023-09-08T13:15:56;6.07;;;3.38;;
18265;SDS011;9259;48.194;16.322;2023-09-08T13:18:26;6.15;;;3.35;;
18265;SDS011;9259;48.194;16.322;2023-09-08T13:21:01;5.18;;;3.50;;
18265;SDS011;9259;48.194;16.322;2023-09-08T13:23:30;7.90;;;3.45;;
18265;SDS011;9259;48.194;16.322;2023-09-08T13:26:00;4.72;;;3.33;;
18265;SDS011;9259;48.194;16.322;2023-09-08T13:28:28;5.20;;;3.08;;
18265;SDS011;9259;48.194;16.322;2023-09-08T13:30:58;4.18;;;3.00;;
18265;SDS011;9259;48.194;16.322;2023-09-08T13:33:28;5.50;;;3.28;;
18265;SDS011;9259;48.194;16.322;2023-09-08T13:35:57;6.40;;;3.20;;
18265;SDS011;9259;48.194;16.322;2023-09-08T13:38:27;4.30;;;2.70;;
18265;SDS011;9259;48.194;16.322;2023-09-08T13:40:56;5.95;;;3.50;;
18265;SDS011;9259;48.194;16.322;2023-09-08T13:43:27;4.75;;;3.13;;
18265;SDS011;9259;48.194;16.322;2023-09-08T13:45:56;6.90;;;3.00;;
18265;SDS011;9259;48.194;16.322;2023-09-08T13:48:26;6.50;;;3.50;;
18265;SDS011;9259;48.194;16.322;2023-09-08T13:51:00;7.18;;;3.05;;
18265;SDS011;9259;48.194;16.322;2023-09-08T13:53:29;4.90;;;2.95;;
18265;SDS011;9259;48.194;16.322;2023-09-08T13:55:59;6.28;;;3.35;;
18265;SDS011;9259;48.194;16.322;2023-09-08T13:58:32;6.85;;;3.28;;
18265;SDS011;9259;48.194;16.322;2023-09-08T14:01:02;3.60;;;2.40;;
18265;SDS011;9259;48.194;16.322;2023-09-08T14:03:31;5.85;;;3.25;;
18265;SDS011;9259;48.194;16.322;2023-09-08T14:06:01;7.00;;;3.42;;
18265;SDS011;9259;48.194;16.322;2023-09-08T14:08:32;5.07;;;3.10;;
18265;SDS011;9259;48.194;16.322;2023-09-08T14:11:02;3.92;;;3.00;;
18265;SDS011;9259;48.194;16.322;2023-09-08T14:13:33;5.78;;;3.17;;
18265;SDS011;9259;48.194;16.322;2023-09-08T14:16:03;7.05;;;3.63;;
18265;SDS011;9259;48.194;16.322;2023-09-08T14:18:33;7.30;;;3.22;;
18265;SDS011;9259;48.194;16.322;2023-09-08T14:21:03;6.68;;;3.28;;
18265;SDS011;9259;48.194;16.322;2023-09-08T14:23:33;4.20;;;2.95;;
18265;SDS011;9259;48.194;16.322;2023-09-08T14:26:03;6.30;;;2.80;;
18265;SDS011;9259;48.194;16.322;2023-09-08T14:28:35;5.72;;;3.30;;
18265;SDS011;9259;48.194;16.322;2023-09-08T14:31:06;7.55;;;3.30;;
18265;SDS011;9259;48.194;16.322;2023-09-08T14:33:36;5.70;;;3.35;;
18265;SDS011;9259;48.194;16.322;2023-09-08T14:36:06;6.93;;;3.47;;
18265;SDS011;9259;48.194;16.322;2023-09-08T14:38:35;8.38;;;3.03;;
18265;SDS011;9259;48.194;16.322;2023-09-08T14:41:05;5.25;;;2.67;;
18265;SDS011;9259;48.194;16.322;2023-09-08T14:43:36;4.53;;;3.05;;
18265;SDS011;9259;48.194;16.322;2023-09-08T14:46:06;7.45;;;3.33;;
18265;SDS011;9259;48.194;16.322;2023-09-08T14:48:36;5.25;;;3.20;;
18265;SDS011;9259;48.194;16.322;2023-09-08T14:51:05;6.18;;;3.50;;
18265;SDS011;9259;48.194;16.322;2023-09-08T14:53:35;5.18;;;3.20;;